Lookout Store, Arkansas
Current Conditions -  °F | °C
As of 1:35 PM on Friday 24 Oct 2014 (Local Time) from KSGT Reporting Station
Clear Clear  
Wind Chill: 72°   Ceiling: Unl
Heat Index: 72°   Visibility: 4mi
Dew Point: 52°   Wind: 0mph
Humidity: 50%   Direction: NA
Pressure: 30.14"   Gusts: NA
Location:  34.6163°N, 91.3754°W
Report Text: KSGT 241835Z AUTO 00000KT 4SM CLR 22/11 A3014 RMK AO1
Loading
Personal Weather Stations






























Interactive Weather Map
Tropical Storm Tracking
New forecast layout! Learn more

10-Day Weather Forecast

Advertisements
Track Severe Weather on mobile